Time;durP1;ratioP1;P1;durP2;ratioP2;P2;SDS_P1;SDS_P2;PMS_P1;PMS_P2;Temp;Humidity;BMP_temperature;BMP_pressure;BME280_temperature;BME280_humidity;BME280_pressure;Samples;Min_cycle;Max_cycle;Signal;HPM_P1;HPM_P2
2021/03/30 00:00:25;;;;;;;14.52;8.10;;;7.20;72.10;;;;;;5053801;28;20025;-82
2021/03/30 00:02:51;;;;;;;12.18;8.02;;;7.20;72.30;;;;;;5053499;28;20440;-82
2021/03/30 00:05:17;;;;;;;18.23;8.70;;;7.20;72.60;;;;;;5053457;28;20029;-81
2021/03/30 00:07:43;;;;;;;14.30;8.20;;;7.20;72.60;;;;;;5054613;28;20024;-81
2021/03/30 00:10:15;;;;;;;13.07;8.00;;;7.10;73.00;;;;;;5054566;28;20086;-81
2021/03/30 00:12:41;;;;;;;14.05;7.97;;;7.10;73.20;;;;;;5053374;28;20079;-82
2021/03/30 00:15:10;;;;;;;14.82;7.78;;;7.10;73.10;;;;;;5053274;28;20029;-81
2021/03/30 00:17:36;;;;;;;12.38;7.55;;;7.00;73.30;;;;;;5053406;28;20048;-81
2021/03/30 00:20:14;;;;;;;15.43;8.65;;;7.00;73.60;;;;;;5055188;28;20470;-82
2021/03/30 00:22:40;;;;;;;11.75;8.05;;;6.90;74.10;;;;;;5053364;28;20420;-82
2021/03/30 00:25:08;;;;;;;14.57;8.27;;;6.90;74.20;;;;;;5053484;28;20025;-81
2021/03/30 00:27:33;;;;;;;12.13;8.20;;;6.80;75.10;;;;;;5053601;28;20108;-82
2021/03/30 00:29:59;;;;;;;14.55;8.30;;;6.80;74.90;;;;;;5052331;28;20140;-82
2021/03/30 00:32:25;;;;;;;14.98;8.10;;;6.80;75.30;;;;;;5053290;28;20466;-82
2021/03/30 00:34:50;;;;;;;11.40;7.68;;;6.80;75.60;;;;;;5053348;28;20085;-82
2021/03/30 00:37:16;;;;;;;12.82;8.02;;;6.70;75.60;;;;;;5054394;28;20036;-81
2021/03/30 00:39:42;;;;;;;12.68;7.90;;;6.70;75.90;;;;;;5054511;28;20107;-82
2021/03/30 00:42:08;;;;;;;14.52;7.70;;;6.60;75.90;;;;;;5053778;28;20032;-81
2021/03/30 00:44:34;;;;;;;17.88;8.30;;;6.60;76.10;;;;;;5053006;28;20033;-81
2021/03/30 00:47:01;;;;;;;17.83;9.07;;;6.50;76.00;;;;;;5054296;28;20036;-81
2021/03/30 00:49:31;;;;;;;15.48;8.45;;;6.50;76.50;;;;;;5054567;28;20067;-81
2021/03/30 00:51:57;;;;;;;13.87;8.87;;;6.40;76.50;;;;;;5053043;28;20028;-81
2021/03/30 00:54:22;;;;;;;15.75;9.50;;;6.40;76.80;;;;;;5052956;28;20429;-81
2021/03/30 00:56:48;;;;;;;13.75;8.65;;;6.30;77.10;;;;;;5052921;28;20027;-82
2021/03/30 00:59:16;;;;;;;15.23;9.45;;;6.30;77.10;;;;;;5053713;28;20375;-82
2021/03/30 01:01:41;;;;;;;12.00;8.80;;;6.20;77.50;;;;;;5052762;28;20433;-81
2021/03/30 01:04:07;;;;;;;13.48;9.25;;;6.20;77.40;;;;;;5075196;28;20013;-82
2021/03/30 01:06:33;;;;;;;15.65;10.35;;;6.20;77.40;;;;;;5055163;28;20155;-82
2021/03/30 01:09:11;;;;;;;14.25;9.23;;;6.10;77.90;;;;;;5052818;28;20025;-82
2021/03/30 01:12:14;;;;;;;21.15;10.57;;;6.10;78.10;;;;;;5052665;28;20021;-82
2021/03/30 01:15:05;;;;;;;12.55;9.00;;;6.00;77.90;;;;;;5052394;28;20063;-82
2021/03/30 01:17:44;;;;;;;15.68;10.30;;;6.00;77.60;;;;;;5052565;28;20029;-82
2021/03/30 01:20:12;;;;;;;12.65;8.13;;;6.00;79.50;;;;;;5053455;28;20386;-81
2021/03/30 01:23:07;;;;;;;15.63;9.35;;;6.00;78.40;;;;;;5052125;28;20033;-81
2021/03/30 01:25:38;;;;;;;17.40;9.30;;;6.00;78.50;;;;;;5033445;28;20025;-81
2021/03/30 01:28:19;;;;;;;17.90;9.77;;;5.90;78.30;;;;;;5033660;28;20092;-81
2021/03/30 01:30:47;;;;;;;16.77;8.63;;;5.90;78.20;;;;;;5033500;28;20092;-82
2021/03/30 01:33:15;;;;;;;16.67;8.65;;;6.00;78.10;;;;;;5033619;28;20017;-81
2021/03/30 01:35:42;;;;;;;15.35;9.13;;;5.90;78.10;;;;;;5032138;28;20053;-81
2021/03/30 01:38:11;;;;;;;16.23;9.88;;;5.90;78.00;;;;;;5033618;28;20112;-82
2021/03/30 01:40:38;;;;;;;19.30;10.23;;;5.90;78.50;;;;;;5052161;28;20458;-81
2021/03/30 01:43:07;;;;;;;21.23;9.93;;;5.80;78.50;;;;;;5051793;28;20021;-81
2021/03/30 01:45:34;;;;;;;14.82;9.18;;;5.80;79.10;;;;;;5053216;28;20033;-82
2021/03/30 01:48:01;;;;;;;13.98;9.73;;;5.70;78.70;;;;;;5051862;28;20036;-82
2021/03/30 01:50:29;;;;;;;13.45;8.65;;;5.60;78.80;;;;;;5051566;28;20021;-81
2021/03/30 01:52:57;;;;;;;16.15;9.63;;;5.60;78.70;;;;;;5051928;28;20029;-81
2021/03/30 01:55:23;;;;;;;15.18;9.13;;;5.60;78.90;;;;;;5051957;28;20410;-81
2021/03/30 01:57:55;;;;;;;14.05;8.50;;;5.50;79.00;;;;;;5051732;28;20021;-81
2021/03/30 02:00:27;;;;;;;14.52;8.70;;;5.50;79.10;;;;;;5051193;28;20414;-81
2021/03/30 02:02:54;;;;;;;17.10;9.30;;;5.50;79.10;;;;;;5052956;28;20036;-81
2021/03/30 02:05:21;;;;;;;14.35;9.18;;;5.40;79.30;;;;;;5051793;28;20122;-81
2021/03/30 02:07:52;;;;;;;16.65;9.77;;;5.40;79.70;;;;;;5051730;28;20025;-81
2021/03/30 02:11:04;;;;;;;16.42;10.95;;;5.30;80.20;;;;;;5051526;28;20025;-81
2021/03/30 02:13:10;;;;;;;21.67;11.60;;;5.30;80.60;;;;;;5048952;28;20078;-81
2021/03/30 02:15:36;;;;;;;18.10;9.20;;;5.20;81.50;;;;;;5051137;28;20021;-81
2021/03/30 02:18:03;;;;;;;19.45;9.90;;;5.20;81.00;;;;;;5051781;28;20112;-82
2021/03/30 02:20:36;;;;;;;18.63;11.85;;;5.10;81.50;;;;;;5052096;28;20536;-82
2021/03/30 02:23:16;;;;;;;16.80;10.18;;;5.00;82.70;;;;;;5052161;28;20445;-82
2021/03/30 02:25:47;;;;;;;13.68;9.55;;;4.90;82.40;;;;;;5053256;28;20032;-82
2021/03/30 02:28:16;;;;;;;14.95;9.77;;;4.80;82.40;;;;;;5051796;28;20021;-82
2021/03/30 02:30:43;;;;;;;14.63;9.93;;;4.80;82.30;;;;;;5051267;28;20029;-81
2021/03/30 02:33:12;;;;;;;19.65;11.68;;;4.70;82.80;;;;;;5050043;28;20116;-81
2021/03/30 02:35:38;;;;;;;19.05;12.43;;;4.60;84.40;;;;;;5050409;28;20029;-82
2021/03/30 02:38:06;;;;;;;18.20;11.60;;;4.50;84.60;;;;;;5051452;28;20040;-82
2021/03/30 02:40:32;;;;;;;14.73;9.93;;;4.50;84.60;;;;;;5050813;28;20120;-82
2021/03/30 02:42:59;;;;;;;22.30;11.23;;;4.50;84.20;;;;;;5052199;28;20063;-82
2021/03/30 02:45:29;;;;;;;14.77;10.38;;;4.40;85.60;;;;;;5053011;28;20112;-82
2021/03/30 02:47:59;;;;;;;19.10;12.27;;;4.30;85.40;;;;;;5065923;28;20025;-82
2021/03/30 02:50:27;;;;;;;21.02;13.18;;;4.30;87.20;;;;;;5057889;28;20554;-83
2021/03/30 02:52:54;;;;;;;20.63;12.38;;;4.20;87.40;;;;;;5052144;28;20032;-82
2021/03/30 02:55:21;;;;;;;23.75;14.88;;;4.20;86.70;;;;;;5055982;28;20104;-82
2021/03/30 02:57:47;;;;;;;23.63;13.60;;;4.10;88.20;;;;;;5054587;28;20020;-82
2021/03/30 03:00:14;;;;;;;18.35;12.52;;;4.10;87.90;;;;;;5054643;28;20040;-82
2021/03/30 03:02:42;;;;;;;20.63;13.93;;;4.10;87.70;;;;;;5054192;28;20071;-82
2021/03/30 03:05:09;;;;;;;22.33;13.50;;;4.10;89.60;;;;;;5054519;28;20120;-82
2021/03/30 03:07:37;;;;;;;22.23;13.25;;;4.10;89.50;;;;;;5054357;28;20025;-80
2021/03/30 03:10:07;;;;;;;21.88;12.75;;;4.10;88.70;;;;;;5055759;28;20540;-79
2021/03/30 03:12:39;;;;;;;16.75;12.10;;;4.10;88.70;;;;;;5054573;28;20067;-79
2021/03/30 03:15:07;;;;;;;19.92;12.88;;;4.10;88.20;;;;;;5055614;28;20090;-79
2021/03/30 03:17:35;;;;;;;25.52;16.60;;;4.10;89.00;;;;;;5055616;28;20021;-80
2021/03/30 03:20:03;;;;;;;22.42;14.02;;;4.00;90.60;;;;;;5054107;28;20025;-79
2021/03/30 03:22:29;;;;;;;18.42;12.65;;;3.90;90.00;;;;;;5055359;28;20020;-80
2021/03/30 03:24:55;;;;;;;19.27;12.07;;;3.90;89.60;;;;;;5054155;28;20025;-79
2021/03/30 03:27:21;;;;;;;20.65;12.38;;;3.90;89.80;;;;;;5053256;28;20021;-80
2021/03/30 03:29:47;;;;;;;18.05;11.70;;;3.90;88.80;;;;;;5055212;28;20049;-79
2021/03/30 03:32:12;;;;;;;15.70;10.82;;;4.00;88.30;;;;;;5053098;28;20021;-79
2021/03/30 03:34:38;;;;;;;16.65;11.23;;;4.00;88.00;;;;;;5053329;28;20028;-79
2021/03/30 03:37:05;;;;;;;17.60;10.73;;;4.00;87.70;;;;;;5053458;28;20417;-79
2021/03/30 03:39:31;;;;;;;19.23;11.73;;;4.10;87.50;;;;;;5053751;28;20120;-79
2021/03/30 03:41:56;;;;;;;23.25;13.45;;;4.10;87.80;;;;;;5053649;28;20032;-80
2021/03/30 03:44:28;;;;;;;17.58;11.77;;;4.10;89.40;;;;;;5054929;28;20032;-78
2021/03/30 03:46:54;;;;;;;16.70;10.75;;;4.10;87.70;;;;;;5053843;28;20033;-78
2021/03/30 03:49:22;;;;;;;16.33;10.63;;;4.20;87.40;;;;;;5053268;28;20089;-78
2021/03/30 03:52:09;;;;;;;15.77;10.73;;;4.20;87.10;;;;;;5053348;28;20025;-78
2021/03/30 03:54:37;;;;;;;20.17;10.75;;;4.20;86.90;;;;;;5053126;28;20036;-79
2021/03/30 03:57:29;;;;;;;16.45;10.43;;;4.20;86.70;;;;;;5053207;28;20430;-79
2021/03/30 03:59:57;;;;;;;21.05;11.77;;;4.20;86.70;;;;;;5053020;28;20056;-78
2021/03/30 04:02:25;;;;;;;16.52;10.02;;;4.20;86.60;;;;;;5054315;28;20060;-80
2021/03/30 04:05:13;;;;;;;20.17;10.70;;;4.20;86.40;;;;;;5054360;28;20021;-79
2021/03/30 04:07:59;;;;;;;17.60;10.75;;;4.20;86.70;;;;;;5053278;28;20409;-79
2021/03/30 04:10:27;;;;;;;19.13;11.23;;;4.20;86.50;;;;;;5054579;28;20091;-78
2021/03/30 04:12:54;;;;;;;17.45;12.02;;;4.20;86.50;;;;;;5053188;28;20025;-79
2021/03/30 04:15:21;;;;;;;27.48;14.48;;;4.20;86.90;;;;;;5054135;28;20415;-79
2021/03/30 04:17:47;;;;;;;17.13;11.70;;;4.20;87.80;;;;;;5052492;28;20032;-79
2021/03/30 04:20:15;;;;;;;21.88;13.38;;;4.30;87.30;;;;;;5053276;28;20107;-79
2021/03/30 04:22:49;;;;;;;21.60;11.68;;;4.20;87.60;;;;;;5054037;28;20025;-80
2021/03/30 04:25:15;;;;;;;21.42;12.23;;;4.30;87.20;;;;;;5052875;28;20040;-79
2021/03/30 04:27:41;;;;;;;20.33;12.63;;;4.30;87.40;;;;;;5053111;28;20410;-79
2021/03/30 04:30:07;;;;;;;23.85;12.63;;;4.40;87.20;;;;;;5053720;28;20103;-79
2021/03/30 04:32:32;;;;;;;17.27;12.13;;;4.40;87.60;;;;;;5071865;28;20016;-78
2021/03/30 04:34:58;;;;;;;19.55;10.88;;;4.40;88.40;;;;;;5059514;28;20074;-78
2021/03/30 04:37:24;;;;;;;22.48;13.50;;;4.50;87.40;;;;;;5053166;28;20021;-79
2021/03/30 04:39:49;;;;;;;24.05;13.45;;;4.50;87.80;;;;;;5052850;28;20033;-78
2021/03/30 04:42:15;;;;;;;23.52;13.38;;;4.50;88.30;;;;;;5053100;28;20056;-78
2021/03/30 04:44:41;;;;;;;25.42;14.27;;;4.60;88.50;;;;;;5052019;28;20471;-78
2021/03/30 04:47:07;;;;;;;24.60;12.88;;;4.60;87.60;;;;;;5052617;28;20033;-78
2021/03/30 04:49:33;;;;;;;19.70;12.32;;;4.70;87.60;;;;;;5052128;28;20032;-77
2021/03/30 04:51:58;;;;;;;18.75;12.50;;;4.70;87.30;;;;;;5083384;28;20352;-78
2021/03/30 04:54:24;;;;;;;21.95;12.20;;;4.70;87.60;;;;;;5052336;28;20090;-78
2021/03/30 04:56:50;;;;;;;24.55;13.73;;;4.70;87.20;;;;;;5052959;28;20028;-78
2021/03/30 04:59:16;;;;;;;22.63;12.02;;;4.80;87.00;;;;;;5054021;28;20100;-78
2021/03/30 05:01:42;;;;;;;21.23;12.73;;;4.80;86.50;;;;;;5052403;28;20613;-79
2021/03/30 05:04:07;;;;;;;23.02;13.40;;;4.90;86.20;;;;;;5053284;28;20064;-78
2021/03/30 05:06:33;;;;;;;21.45;12.18;;;4.90;86.10;;;;;;5052951;28;20402;-82
2021/03/30 05:08:59;;;;;;;19.55;11.63;;;5.00;86.00;;;;;;5052535;28;20398;-78
2021/03/30 05:11:25;;;;;;;20.48;12.02;;;5.00;85.90;;;;;;5052285;28;20033;-76
2021/03/30 05:13:51;;;;;;;17.92;11.55;;;5.20;85.40;;;;;;5052398;28;20093;-76
2021/03/30 05:16:16;;;;;;;23.60;12.48;;;5.20;85.00;;;;;;5051803;28;20475;-79
2021/03/30 05:18:43;;;;;;;21.60;12.23;;;5.30;84.80;;;;;;5052205;28;20071;-78
2021/03/30 05:21:09;;;;;;;23.13;12.38;;;5.40;84.20;;;;;;5053370;28;20031;-79
2021/03/30 05:23:35;;;;;;;23.42;12.18;;;5.40;84.00;;;;;;5051215;28;20033;-79
2021/03/30 05:26:00;;;;;;;21.50;13.13;;;5.50;83.80;;;;;;5051805;28;20029;-79
2021/03/30 05:28:26;;;;;;;21.75;12.75;;;5.50;83.20;;;;;;5050996;28;20033;-79
2021/03/30 05:30:52;;;;;;;19.40;13.00;;;5.60;83.50;;;;;;5052282;28;20025;-79
2021/03/30 05:33:19;;;;;;;21.23;12.25;;;5.60;83.20;;;;;;5052154;28;20390;-79
2021/03/30 05:35:44;;;;;;;24.88;14.32;;;5.70;82.90;;;;;;5052117;28;20025;-79
2021/03/30 05:38:11;;;;;;;19.98;11.63;;;5.80;82.20;;;;;;5050603;28;20033;-78
2021/03/30 05:40:37;;;;;;;21.83;12.63;;;5.80;81.80;;;;;;5050664;28;20119;-79
2021/03/30 05:43:02;;;;;;;27.70;14.50;;;5.90;81.90;;;;;;5050729;28;20029;-79
2021/03/30 05:45:30;;;;;;;24.52;13.18;;;5.90;81.30;;;;;;5050695;28;20033;-79
2021/03/30 05:47:57;;;;;;;22.63;12.55;;;6.00;81.60;;;;;;5050716;28;20036;-79
2021/03/30 05:50:27;;;;;;;22.90;12.43;;;6.10;81.30;;;;;;5050432;28;20056;-79
2021/03/30 05:53:05;;;;;;;21.65;12.95;;;6.10;81.30;;;;;;5050554;28;20378;-79
2021/03/30 05:55:36;;;;;;;21.33;12.27;;;6.20;81.30;;;;;;5050440;28;20496;-79
2021/03/30 05:58:04;;;;;;;23.42;11.75;;;6.20;81.00;;;;;;5050525;28;20394;-79
2021/03/30 06:00:42;;;;;;;20.27;11.55;;;6.30;80.90;;;;;;5051594;28;20025;-79
2021/03/30 06:03:12;;;;;;;27.27;11.95;;;6.30;80.30;;;;;;5050384;28;20063;-78
2021/03/30 06:05:38;;;;;;;21.42;12.88;;;6.30;80.40;;;;;;5050591;28;20056;-79
2021/03/30 06:08:05;;;;;;;22.30;13.15;;;6.40;80.40;;;;;;5051936;28;20033;-79
2021/03/30 06:10:32;;;;;;;23.00;13.98;;;6.40;80.00;;;;;;5050534;28;20021;-79
2021/03/30 06:13:00;;;;;;;22.33;13.45;;;6.40;80.20;;;;;;5050993;28;20021;-79
2021/03/30 06:15:33;;;;;;;25.23;12.18;;;6.40;81.00;;;;;;5060375;28;20005;-79
2021/03/30 06:18:01;;;;;;;20.23;12.13;;;6.40;80.70;;;;;;5061465;28;20394;-79
2021/03/30 06:20:33;;;;;;;25.30;13.52;;;6.50;80.80;;;;;;5052181;28;20029;-79
2021/03/30 06:23:04;;;;;;;27.65;14.90;;;6.60;80.40;;;;;;5053301;28;20035;-79
2021/03/30 06:25:36;;;;;;;;;;;6.60;79.80;;;;;;5052573;28;20463;-79
2021/03/30 06:28:17;;;;;;;21.00;12.40;;;6.70;80.30;;;;;;5053390;28;19905;-80
2021/03/30 06:31:06;;;;;;;20.95;12.38;;;6.80;80.20;;;;;;5057099;28;20040;-80
2021/03/30 06:33:44;;;;;;;24.35;12.57;;;6.90;80.00;;;;;;5055716;28;20383;-80
2021/03/30 06:36:18;;;;;;;24.95;13.18;;;6.90;80.00;;;;;;5056959;28;20028;-80
2021/03/30 06:38:55;;;;;;;22.20;12.30;;;6.90;79.80;;;;;;5057003;28;20090;-79
2021/03/30 06:41:46;;;;;;;20.25;12.60;;;7.00;79.80;;;;;;5055858;28;20094;-79
2021/03/30 06:44:27;;;;;;;21.13;14.05;;;7.10;79.90;;;;;;5056316;28;20032;-79
2021/03/30 06:47:20;;;;;;;19.60;11.93;;;7.10;79.70;;;;;;5055621;28;20489;-79
2021/03/30 06:50:01;;;;;;;21.63;12.98;;;7.20;79.70;;;;;;5055606;28;20163;-79
2021/03/30 06:52:33;;;;;;;24.73;13.32;;;7.30;79.60;;;;;;5055399;28;20025;-80
2021/03/30 06:55:04;;;;;;;20.67;13.20;;;7.30;79.40;;;;;;5056775;28;20024;-80
2021/03/30 06:57:50;;;;;;;20.40;12.52;;;7.30;78.80;;;;;;5055376;28;20114;-80
2021/03/30 07:00:24;;;;;;;21.20;13.07;;;7.30;79.10;;;;;;5055167;28;20033;-80
2021/03/30 07:03:12;;;;;;;29.45;15.95;;;7.40;79.10;;;;;;5055099;28;20032;-79
2021/03/30 07:05:44;;;;;;;20.25;12.20;;;7.40;78.50;;;;;;5054629;28;20509;-78
2021/03/30 07:08:11;;;;;;;17.88;11.73;;;7.50;78.80;;;;;;5055116;28;20040;-79
2021/03/30 07:10:42;;;;;;;22.85;13.10;;;7.50;78.60;;;;;;5055085;28;20033;-78
2021/03/30 07:13:09;;;;;;;19.13;11.68;;;7.50;78.70;;;;;;5054818;28;20029;-79
2021/03/30 07:15:35;;;;;;;26.52;13.23;;;7.60;78.60;;;;;;5054935;28;20025;-79
2021/03/30 07:18:23;;;;;;;61.10;14.48;;;7.50;77.80;;;;;;5054893;28;20036;-81
2021/03/30 07:21:11;;;;;;;22.45;11.38;;;7.60;78.10;;;;;;5052966;28;20425;-80
2021/03/30 07:23:41;;;;;;;24.73;14.90;;;7.60;77.20;;;;;;5054474;28;20048;-81
2021/03/30 07:26:19;;;;;;;24.83;13.45;;;7.60;78.20;;;;;;5054233;28;20087;-81
2021/03/30 07:29:09;;;;;;;22.20;14.25;;;7.60;78.50;;;;;;5052734;28;20048;-80
2021/03/30 07:31:43;;;;;;;21.58;12.95;;;7.70;78.70;;;;;;5054198;28;20104;-81
2021/03/30 07:34:49;;;;;;;22.75;12.82;;;7.70;77.40;;;;;;5054281;28;20495;-80
2021/03/30 07:37:29;;;;;;;20.95;11.65;;;7.70;78.10;;;;;;5052739;28;20025;-80
2021/03/30 07:39:59;;;;;;;16.73;11.00;;;7.80;78.20;;;;;;5052223;28;20127;-80
2021/03/30 07:42:26;;;;;;;16.38;11.15;;;7.80;78.00;;;;;;5052792;28;20044;-80
2021/03/30 07:44:53;;;;;;;20.50;11.93;;;7.90;77.80;;;;;;5052750;28;20028;-80
2021/03/30 07:47:19;;;;;;;22.60;13.80;;;7.90;77.60;;;;;;5053884;28;20094;-80
2021/03/30 07:49:50;;;;;;;18.88;11.45;;;7.90;77.20;;;;;;5053752;28;20052;-80
2021/03/30 07:52:20;;;;;;;18.10;11.27;;;8.00;77.20;;;;;;5052502;28;20025;-80
2021/03/30 07:55:20;;;;;;;20.88;12.07;;;8.00;76.90;;;;;;5052735;28;20495;-80
2021/03/30 07:58:16;;;;;;;20.75;13.20;;;8.00;75.50;;;;;;5052675;28;20025;-80
2021/03/30 08:00:47;;;;;;;20.70;11.52;;;8.00;75.60;;;;;;5052668;28;20512;-80
2021/03/30 08:03:23;;;;;;;18.23;10.82;;;8.00;75.50;;;;;;5052336;28;20029;-80
2021/03/30 08:06:15;;;;;;;21.17;12.82;;;8.10;74.90;;;;;;5052017;28;20029;-80
2021/03/30 08:08:46;;;;;;;23.17;12.38;;;8.00;74.50;;;;;;5053182;28;20356;-80
2021/03/30 08:11:12;;;;;;;17.30;11.48;;;8.00;75.00;;;;;;5053237;28;20032;-80
2021/03/30 08:13:53;;;;;;;18.17;10.93;;;8.10;74.30;;;;;;5051928;28;20021;-80
2021/03/30 08:16:20;;;;;;;16.20;10.18;;;8.10;74.10;;;;;;5052061;28;20634;-80
2021/03/30 08:18:47;;;;;;;14.02;9.20;;;8.10;73.70;;;;;;5052651;28;20386;-80
2021/03/30 08:21:18;;;;;;;14.65;9.05;;;8.10;71.50;;;;;;5053629;28;20042;-82
2021/03/30 08:23:53;;;;;;;14.20;8.55;;;8.20;72.60;;;;;;5055097;28;20060;-80
2021/03/30 08:26:23;;;;;;;15.35;9.85;;;8.30;71.10;;;;;;5053692;28;20029;-80
2021/03/30 08:28:53;;;;;;;13.50;8.13;;;8.40;72.10;;;;;;5053409;28;20068;-82
2021/03/30 08:31:21;;;;;;;14.50;7.75;;;8.50;71.30;;;;;;5053588;28;20060;-81
2021/03/30 08:33:49;;;;;;;13.00;7.40;;;8.60;69.80;;;;;;5053629;28;20040;-80
2021/03/30 08:36:18;;;;;;;13.65;8.48;;;8.60;69.90;;;;;;5053433;28;20032;-80
2021/03/30 08:38:48;;;;;;;10.50;7.45;;;8.70;67.10;;;;;;5053466;28;20028;-81
2021/03/30 08:41:42;;;;;;;12.45;7.47;;;8.80;68.70;;;;;;5053355;28;20032;-82
2021/03/30 08:44:31;;;;;;;13.38;8.48;;;8.90;66.20;;;;;;5053413;28;20028;-82
2021/03/30 08:46:57;;;;;;;12.82;8.43;;;8.90;65.90;;;;;;5054403;28;20021;-81
2021/03/30 08:49:26;;;;;;;14.60;8.27;;;8.90;67.00;;;;;;5054489;28;20032;-81
2021/03/30 08:52:02;;;;;;;18.73;9.50;;;8.90;67.80;;;;;;5052331;28;20028;-81
2021/03/30 08:54:30;;;;;;;13.85;8.55;;;9.00;66.90;;;;;;5054449;28;20025;-81
2021/03/30 08:56:59;;;;;;;15.65;8.82;;;9.00;66.50;;;;;;5054171;28;20025;-81
2021/03/30 08:59:27;;;;;;;13.73;8.85;;;9.00;67.20;;;;;;5053016;28;20379;-80
2021/03/30 09:02:11;;;;;;;14.90;8.02;;;9.10;66.70;;;;;;5053008;28;20029;-80
2021/03/30 09:04:40;;;;;;;14.63;8.10;;;9.10;64.50;;;;;;5054424;28;20100;-80
2021/03/30 09:07:07;;;;;;;18.58;9.57;;;9.10;64.60;;;;;;5052983;28;20116;-81
2021/03/30 09:09:34;;;;;;;12.50;7.45;;;9.10;63.30;;;;;;5052843;28;20029;-81
2021/03/30 09:12:18;;;;;;;18.30;9.25;;;9.10;65.20;;;;;;5052736;28;20478;-81
2021/03/30 09:14:45;;;;;;;11.43;8.07;;;9.10;64.30;;;;;;5052952;28;20021;-83
2021/03/30 09:17:13;;;;;;;13.52;7.70;;;9.10;64.10;;;;;;5054192;28;20062;-81
2021/03/30 09:19:43;;;;;;;18.60;8.48;;;9.20;64.90;;;;;;5051142;28;20017;-81
2021/03/30 09:22:15;;;;;;;13.15;7.97;;;9.20;63.90;;;;;;5051336;28;20090;-80
2021/03/30 09:27:27;;;;;;;16.88;8.68;;;9.40;64.20;;;;;;5051989;28;20104;-80
2021/03/30 09:29:58;;;;;;;11.63;6.25;;;9.50;63.20;;;;;;5050496;28;20049;-80
2021/03/30 09:32:25;;;;;;;14.93;6.00;;;9.50;61.40;;;;;;5051010;28;20467;-80
2021/03/30 09:34:52;;;;;;;10.80;5.82;;;9.60;58.70;;;;;;5050565;28;20111;-81
2021/03/30 09:37:18;;;;;;;8.05;5.22;;;9.70;58.10;;;;;;5050683;28;20025;-80
2021/03/30 09:39:45;;;;;;;7.10;4.47;;;9.80;59.60;;;;;;5053596;28;20112;-80
2021/03/30 09:42:11;;;;;;;8.98;5.53;;;9.70;54.70;;;;;;5052544;28;20013;-80
2021/03/30 09:44:45;;;;;;;15.60;7.95;;;9.80;57.80;;;;;;5050446;28;20025;-80
2021/03/30 09:47:12;;;;;;;14.10;7.57;;;9.80;58.20;;;;;;5051738;28;20041;-81
2021/03/30 09:49:40;;;;;;;14.93;8.25;;;9.90;59.40;;;;;;5050355;28;20463;-81
2021/03/30 09:52:07;;;;;;;9.45;6.65;;;9.90;59.40;;;;;;5050437;28;20029;-81
2021/03/30 09:54:42;;;;;;;11.27;6.13;;;10.00;60.30;;;;;;5050348;28;20025;-81
2021/03/30 09:57:12;;;;;;;14.10;7.45;;;10.10;60.30;;;;;;5050250;28;20025;-81
2021/03/30 09:59:38;;;;;;;9.80;6.25;;;10.10;58.80;;;;;;5050531;28;20064;-81
2021/03/30 10:02:04;;;;;;;11.57;5.70;;;10.20;60.30;;;;;;5050389;28;20056;-81
2021/03/30 10:04:34;;;;;;;9.45;5.05;;;10.30;58.90;;;;;;5054326;28;20029;-81
2021/03/30 10:07:13;;;;;;;8.05;5.25;;;10.30;54.50;;;;;;5054174;28;20082;-80
2021/03/30 10:09:59;;;;;;;15.35;5.82;;;10.40;57.00;;;;;;5054106;28;20040;-81
2021/03/30 10:12:31;;;;;;;6.68;4.47;;;10.40;55.80;;;;;;5054278;28;20033;-81
2021/03/30 10:14:58;;;;;;;8.90;4.35;;;10.50;56.30;;;;;;5054163;28;20056;-80
2021/03/30 10:17:25;;;;;;;7.70;5.00;;;10.50;56.20;;;;;;5055637;28;20055;-81
2021/03/30 10:19:53;;;;;;;8.73;5.80;;;10.50;56.30;;;;;;5055608;28;20029;-81
2021/03/30 10:22:37;;;;;;;7.78;5.00;;;10.50;54.50;;;;;;5055850;28;20111;-81
2021/03/30 10:25:27;;;;;;;10.05;5.55;;;10.60;54.70;;;;;;5055900;28;20389;-82
2021/03/30 10:27:59;;;;;;;9.02;6.00;;;10.60;54.00;;;;;;5056056;28;20024;-81
2021/03/30 10:30:43;;;;;;;12.82;6.30;;;10.60;55.50;;;;;;5055302;28;20053;-81
2021/03/30 10:33:17;;;;;;;42.83;22.40;;;10.50;54.10;;;;;;5055758;28;20017;-81
2021/03/30 10:35:44;;;;;;;12.15;6.53;;;10.40;55.10;;;;;;5055918;28;20025;-81
2021/03/30 10:38:10;;;;;;;14.80;6.43;;;10.50;55.60;;;;;;5055662;28;20387;-80
2021/03/30 10:40:38;;;;;;;7.20;5.07;;;10.50;55.20;;;;;;5055603;28;20032;-80
2021/03/30 10:43:25;;;;;;;9.55;5.47;;;10.60;54.90;;;;;;5055601;28;20036;-80
2021/03/30 10:45:52;;;;;;;9.23;5.68;;;10.60;53.60;;;;;;5056726;28;20078;-80
2021/03/30 10:48:19;;;;;;;16.08;8.57;;;10.60;54.40;;;;;;5055440;28;20032;-81
2021/03/30 10:50:45;;;;;;;10.52;5.93;;;10.70;54.80;;;;;;5055405;28;20078;-81
2021/03/30 10:53:11;;;;;;;12.63;6.05;;;10.70;53.20;;;;;;5055488;28;20467;-81
2021/03/30 10:55:39;;;;;;;7.20;4.72;;;10.80;54.10;;;;;;5056638;28;20032;-81
2021/03/30 10:58:08;;;;;;;8.63;5.28;;;10.80;53.90;;;;;;5055202;28;20064;-81
2021/03/30 11:00:35;;;;;;;16.83;5.43;;;10.80;52.60;;;;;;5055184;28;20036;-82
2021/03/30 11:03:01;;;;;;;8.88;5.10;;;10.80;53.30;;;;;;5055250;28;20375;-81
2021/03/30 11:05:27;;;;;;;21.83;10.18;;;10.90;53.50;;;;;;5055471;28;20036;-81
2021/03/30 11:07:53;;;;;;;12.55;6.45;;;10.90;53.40;;;;;;5055178;28;20082;-81
2021/03/30 11:10:21;;;;;;;6.93;4.88;;;11.00;53.60;;;;;;5056004;28;20532;-81
2021/03/30 11:12:46;;;;;;;7.00;5.13;;;11.00;52.70;;;;;;5055053;28;20554;-81
2021/03/30 11:15:12;;;;;;;11.52;5.68;;;11.10;52.10;;;;;;5054239;28;20045;-81
2021/03/30 11:17:38;;;;;;;5.63;4.68;;;11.00;52.00;;;;;;5056388;28;20013;-81
2021/03/30 11:20:07;;;;;;;6.15;4.30;;;11.00;51.70;;;;;;5054202;28;20080;-81
2021/03/30 11:22:32;;;;;;;6.30;4.80;;;11.10;51.20;;;;;;5053026;28;20440;-80
2021/03/30 11:25:01;;;;;;;6.70;4.35;;;11.10;50.30;;;;;;5053317;28;20033;-81
2021/03/30 11:27:29;;;;;;;10.20;4.85;;;11.20;50.80;;;;;;5052801;28;20025;-80
2021/03/30 11:30:43;;;;;;;7.68;4.88;;;11.30;50.90;;;;;;5052538;28;20053;-80
2021/03/30 11:40:23;;;;;;;8.38;4.50;;;11.50;50.70;;;;;;5053773;28;20056;-81
2021/03/30 11:42:49;;;;;;;6.28;4.72;;;11.50;50.40;;;;;;5052584;28;20474;-81
2021/03/30 11:45:15;;;;;;;6.38;4.95;;;11.60;50.60;;;;;;5052589;28;20075;-81
2021/03/30 11:47:41;;;;;;;6.68;4.43;;;11.70;50.90;;;;;;5052567;28;20021;-81
2021/03/30 11:50:07;;;;;;;25.48;5.88;;;11.80;50.60;;;;;;5052439;28;20036;-81
2021/03/30 11:52:34;;;;;;;8.55;4.50;;;11.90;50.10;;;;;;5050935;28;20028;-81
2021/03/30 11:55:01;;;;;;;7.00;4.65;;;12.00;49.70;;;;;;5051934;28;20029;-81
2021/03/30 11:57:27;;;;;;;6.40;4.18;;;12.00;48.80;;;;;;5051496;28;20113;-81
2021/03/30 11:59:53;;;;;;;8.23;4.53;;;12.10;48.30;;;;;;5050307;28;20055;-80
2021/03/30 12:02:18;;;;;;;7.82;4.53;;;12.00;47.80;;;;;;5051603;28;20424;-81
2021/03/30 12:04:44;;;;;;;9.65;4.70;;;12.10;48.20;;;;;;5035693;28;20124;-82
2021/03/30 12:07:10;;;;;;;7.68;5.05;;;12.20;48.30;;;;;;5052095;28;20475;-82
2021/03/30 12:09:36;;;;;;;9.43;4.97;;;12.10;47.70;;;;;;5052155;28;20021;-82
2021/03/30 12:12:01;;;;;;;11.02;5.57;;;12.10;47.70;;;;;;5051976;28;20047;-81
2021/03/30 12:14:27;;;;;;;13.90;6.63;;;12.20;48.70;;;;;;5052205;28;20029;-82
2021/03/30 12:16:53;;;;;;;6.88;5.22;;;12.20;48.20;;;;;;5053264;28;20770;-81
2021/03/30 12:19:19;;;;;;;5.22;4.50;;;12.30;48.50;;;;;;5053257;28;20028;-82
2021/03/30 12:21:46;;;;;;;8.75;4.55;;;12.50;49.00;;;;;;5053836;28;20033;-82
2021/03/30 12:24:13;;;;;;;9.38;5.05;;;12.80;49.00;;;;;;5054872;28;20047;-82
2021/03/30 12:26:38;;;;;;;11.30;5.00;;;13.20;48.00;;;;;;5053440;28;20100;-82
2021/03/30 12:29:05;;;;;;;12.27;5.22;;;13.50;47.90;;;;;;5053393;28;20109;-82
2021/03/30 12:31:32;;;;;;;8.07;5.18;;;13.70;47.70;;;;;;5053597;28;20037;-82
2021/03/30 12:33:58;;;;;;;8.60;5.72;;;14.10;47.00;;;;;;5053653;28;20017;-82
2021/03/30 12:36:24;;;;;;;8.20;5.13;;;14.50;46.50;;;;;;5053544;28;20021;-82
2021/03/30 12:38:50;;;;;;;11.48;5.40;;;14.80;46.80;;;;;;5054916;28;20184;-82
2021/03/30 12:41:16;;;;;;;11.07;8.32;;;15.10;45.60;;;;;;5053382;28;20366;-82
2021/03/30 12:43:42;;;;;;;10.63;7.78;;;15.30;45.30;;;;;;5053807;28;20078;-82
2021/03/30 12:46:07;;;;;;;11.70;7.88;;;15.60;44.30;;;;;;5053183;28;20029;-82
2021/03/30 12:48:33;;;;;;;8.52;6.65;;;15.90;44.90;;;;;;5054438;28;20025;-82
2021/03/30 12:50:59;;;;;;;6.53;5.13;;;15.80;41.90;;;;;;5054329;28;20055;-82
2021/03/30 12:53:25;;;;;;;9.02;5.20;;;15.90;42.30;;;;;;5053157;28;20036;-82
2021/03/30 12:55:50;;;;;;;10.43;5.35;;;16.20;42.60;;;;;;5053170;28;20053;-82
2021/03/30 12:58:16;;;;;;;8.07;5.40;;;16.30;42.10;;;;;;5052791;28;20029;-82
2021/03/30 13:00:43;;;;;;;9.05;5.18;;;16.10;41.50;;;;;;5052875;28;20054;-82
2021/03/30 13:03:09;;;;;;;8.60;5.13;;;16.20;41.40;;;;;;5052805;28;20025;-82
2021/03/30 13:05:34;;;;;;;8.00;5.03;;;16.20;41.60;;;;;;5052126;28;20029;-80